createdAt,value
2023-04-26T00:00:55.591Z,74985.00
2023-04-26T00:03:23.622Z,74988.70
2023-04-26T00:05:51.131Z,74991.17
2023-04-26T00:08:19.819Z,74996.53
2023-04-26T00:10:46.857Z,75002.29
2023-04-26T00:13:14.108Z,75005.98
2023-04-26T00:15:41.314Z,75011.34
2023-04-26T00:18:08.552Z,75015.45
2023-04-26T00:20:35.656Z,75019.96
2023-04-26T00:23:03.447Z,75025.73
2023-04-26T00:25:31.495Z,75031.90
2023-04-26T00:27:58.806Z,75038.89
2023-04-26T00:30:25.959Z,75045.48
2023-04-26T00:32:53.165Z,75048.77
2023-04-26T00:35:20.724Z,75050.83
2023-04-26T00:37:47.956Z,75058.23
2023-04-26T00:40:17.362Z,75061.94
2023-04-26T00:42:44.554Z,75067.70
2023-04-26T00:45:11.676Z,75073.05
2023-04-26T00:47:38.874Z,75078.39
2023-04-26T00:50:06.372Z,75080.86
2023-04-26T00:52:33.512Z,75082.10
2023-04-26T00:55:00.727Z,75084.16
2023-04-26T00:57:27.881Z,75087.45
2023-04-26T00:59:55.339Z,75091.56
2023-04-26T01:02:22.948Z,75096.09
2023-04-26T01:05:57.731Z,75095.27
2023-04-26T01:08:27.326Z,75097.33
2023-04-26T01:10:54.509Z,75101.02
2023-04-26T01:13:21.952Z,75108.02
2023-04-26T01:15:50.336Z,75111.30
2023-04-26T01:18:18.065Z,75116.65
2023-04-26T01:20:47.049Z,75121.60
2023-04-26T01:23:15.305Z,75125.30
2023-04-26T01:25:42.371Z,75125.30
2023-04-26T01:28:09.542Z,75128.17
2023-04-26T01:30:39.338Z,75132.70
2023-04-26T01:33:08.790Z,75133.52
2023-04-26T01:35:36.410Z,75136.82
2023-04-26T01:38:04.570Z,75134.76
2023-04-26T01:40:31.847Z,75136.81
2023-04-26T01:42:59.270Z,75143.40
2023-04-26T01:45:31.262Z,75143.81
2023-04-26T01:48:17.208Z,75148.34
2023-04-26T01:50:44.922Z,75153.69
2023-04-26T01:53:13.696Z,75154.09
2023-04-26T01:55:41.937Z,75154.92
2023-04-26T01:58:09.864Z,75152.45
2023-04-26T02:00:38.223Z,75151.22
2023-04-26T02:03:06.049Z,75148.75
2023-04-26T02:05:33.539Z,75148.34
2023-04-26T02:08:01.865Z,75145.87
2023-04-26T02:10:32.046Z,75145.05
2023-04-26T02:12:59.367Z,75145.45
2023-04-26T02:15:27.645Z,75140.92
2023-04-26T02:17:56.894Z,75140.52
2023-04-26T02:20:24.320Z,75138.88
2023-04-26T02:22:51.777Z,75138.46
2023-04-26T02:25:19.150Z,75138.05
2023-04-26T02:27:46.919Z,75132.70
2023-04-26T02:30:16.188Z,75131.06
2023-04-26T02:40:43.909Z,75156.57
2023-04-26T02:43:11.771Z,75171.38
2023-04-26T02:45:42.911Z,75180.02
2023-04-26T02:48:11.799Z,75184.13
2023-04-26T02:50:39.686Z,75187.02
2023-04-26T02:53:08.187Z,75189.07
2023-04-26T02:55:37.954Z,75187.84
2023-04-26T02:58:06.131Z,75187.02
2023-04-26T03:01:06.649Z,75191.95
2023-04-26T03:03:37.948Z,75196.89
2023-04-26T03:06:05.876Z,75197.70
2023-04-26T03:08:34.878Z,75193.59
2023-04-26T03:11:02.751Z,75189.07
2023-04-26T03:13:30.258Z,75184.55
2023-04-26T03:15:58.086Z,75176.31
2023-04-26T03:18:25.353Z,75175.08
2023-04-26T03:20:54.111Z,75168.09
2023-04-26T03:23:26.090Z,75157.80
2023-04-26T03:25:53.452Z,75156.15
2023-04-26T03:28:21.709Z,75143.40
2023-04-26T03:30:51.575Z,75139.29
2023-04-26T03:33:20.479Z,75133.93
2023-04-26T03:35:48.931Z,75131.05
2023-04-26T03:38:17.134Z,75131.47
2023-04-26T03:40:49.691Z,75128.17
2023-04-26T03:43:23.036Z,75129.41
2023-04-26T03:45:52.463Z,75130.65
2023-04-26T03:48:19.467Z,75135.98
2023-04-26T03:51:00.788Z,75135.17
2023-04-26T03:53:50.152Z,75137.64
2023-04-26T03:56:24.062Z,75143.81
2023-04-26T03:58:52.393Z,75148.75
2023-04-26T04:01:20.784Z,75152.45
2023-04-26T04:03:51.410Z,75151.63
2023-04-26T04:06:21.452Z,75149.98
2023-04-26T04:08:49.242Z,75144.64
2023-04-26T04:11:20.021Z,75140.92
2023-04-26T04:13:49.031Z,75141.75
2023-04-26T04:16:16.235Z,75144.63
2023-04-26T04:18:44.087Z,75142.58
2023-04-26T04:21:11.483Z,75138.87
2023-04-26T04:23:39.091Z,75133.52
2023-04-26T04:26:31.722Z,75122.00
2023-04-26T04:29:08.853Z,75116.66
2023-04-26T04:31:41.855Z,75106.38
2023-04-26T04:34:09.601Z,75103.08
2023-04-26T04:37:02.262Z,75098.96
2023-04-26T04:39:49.497Z,75095.67
2023-04-26T04:42:18.433Z,75091.56
2023-04-26T04:44:46.304Z,75085.39
2023-04-26T04:47:14.826Z,75094.02
2023-04-26T04:49:42.896Z,75095.27
2023-04-26T04:52:11.544Z,75093.20
2023-04-26T04:54:38.757Z,75088.27
2023-04-26T04:57:11.006Z,75082.92
2023-04-26T04:59:39.124Z,75076.75
2023-04-26T05:02:06.968Z,75070.16
2023-04-26T05:04:35.184Z,75059.05
2023-04-26T05:07:02.706Z,75054.13
2023-04-26T05:09:30.053Z,75049.17
2023-04-26T05:11:58.745Z,75038.08
2023-04-26T05:14:28.866Z,75038.90
2023-04-26T05:16:57.770Z,75037.66
2023-04-26T05:19:27.472Z,75031.08
2023-04-26T05:21:54.627Z,75022.85
2023-04-26T05:24:21.734Z,75023.27
2023-04-26T05:26:48.892Z,75017.50
2023-04-26T05:29:54.592Z,75017.51
2023-04-26T05:32:42.224Z,75014.21
2023-04-26T05:35:17.435Z,75014.63
2023-04-26T05:37:46.014Z,75015.45
2023-04-26T05:40:15.220Z,75015.45
2023-04-26T05:42:42.753Z,75017.92
2023-04-26T05:45:10.776Z,75014.63
2023-04-26T05:47:38.991Z,75009.27
2023-04-26T05:50:07.844Z,75005.98
2023-04-26T05:52:36.467Z,74998.99
2023-04-26T05:55:06.551Z,74991.99
2023-04-26T05:57:42.408Z,74981.71
2023-04-26T06:00:11.032Z,74972.66
2023-04-26T06:02:45.499Z,74959.90
2023-04-26T06:05:16.093Z,74949.20
2023-04-26T06:07:44.349Z,74939.34
2023-04-26T06:10:12.623Z,74933.98
2023-04-26T06:12:41.024Z,74919.17
2023-04-26T06:15:10.121Z,74910.13
2023-04-26T06:17:41.175Z,74903.13
2023-04-26T06:20:09.958Z,74891.61
2023-04-26T06:22:38.640Z,74875.98
2023-04-26T06:25:06.771Z,74868.58
2023-04-26T06:27:37.357Z,74856.64
2023-04-26T06:30:06.433Z,74848.41
2023-04-26T06:32:34.052Z,74841.83
2023-04-26T06:35:02.152Z,74831.55
2023-04-26T06:37:29.908Z,74825.38
2023-04-26T06:39:56.896Z,74821.27
2023-04-26T06:42:24.887Z,74818.39
2023-04-26T06:45:16.574Z,74821.67
2023-04-26T06:47:44.796Z,74828.67
2023-04-26T06:50:12.266Z,74829.91
2023-04-26T06:52:41.914Z,74836.48
2023-04-26T06:55:18.471Z,74837.73
2023-04-26T06:57:47.687Z,74838.55
2023-04-26T07:00:17.986Z,74832.37
2023-04-26T07:02:45.666Z,74829.49
2023-04-26T07:05:15.155Z,74819.20
2023-04-26T07:07:43.104Z,74810.98
2023-04-26T07:10:17.629Z,74792.88
2023-04-26T07:12:47.608Z,74771.89
2023-04-26T07:15:17.263Z,74752.98
2023-04-26T07:17:45.844Z,74726.64
2023-04-26T07:20:23.838Z,74692.91
2023-04-26T07:22:58.255Z,74662.88
2023-04-26T07:25:25.513Z,74651.77
2023-04-26T07:27:53.140Z,74643.14
2023-04-26T07:30:22.178Z,74635.73
2023-04-26T07:32:49.441Z,74622.98
2023-04-26T07:35:18.067Z,74612.70
2023-04-26T07:37:45.413Z,74610.64
2023-04-26T07:40:13.756Z,74603.64
2023-04-26T07:42:41.844Z,74595.83
2023-04-26T07:45:09.769Z,74578.14
2023-04-26T07:47:38.468Z,74550.16
2023-04-26T07:50:13.083Z,74533.30
2023-04-26T07:52:40.565Z,74520.14
2023-04-26T07:55:12.553Z,74518.48
2023-04-26T07:57:40.242Z,74514.37
2023-04-26T08:00:13.773Z,74523.84
2023-04-26T08:02:50.252Z,74523.42
2023-04-26T08:05:19.890Z,74518.90
2023-04-26T08:07:49.381Z,74496.27
2023-04-26T08:10:16.669Z,74470.77
2023-04-26T08:12:51.568Z,74439.50
2023-04-26T08:15:20.146Z,74412.77
2023-04-26T08:17:47.929Z,74374.92
2023-04-26T08:20:18.342Z,74326.80
2023-04-26T08:22:45.353Z,74297.59
2023-04-26T08:25:15.204Z,74289.77
2023-04-26T08:27:44.300Z,74261.39
2023-04-26T08:30:11.792Z,74214.91
2023-04-26T08:32:40.488Z,74156.91
2023-04-26T08:35:09.151Z,74105.90
2023-04-26T08:37:39.591Z,74071.77
2023-04-26T08:40:10.469Z,74040.10
2023-04-26T08:42:44.128Z,74006.78
2023-04-26T08:45:12.451Z,73995.67
2023-04-26T08:48:04.666Z,74013.36
2023-04-26T08:50:34.818Z,74055.73
2023-04-26T08:53:01.961Z,74100.56
2023-04-26T08:55:29.331Z,74133.88
2023-04-26T08:57:56.867Z,74163.48
2023-04-26T09:00:24.027Z,74179.53
2023-04-26T09:02:52.307Z,74175.84
2023-04-26T09:05:23.538Z,74181.59
2023-04-26T09:07:57.437Z,74191.05
2023-04-26T09:10:25.369Z,74203.80
2023-04-26T09:12:55.250Z,74216.14
2023-04-26T09:15:27.272Z,74221.91
2023-04-26T09:17:55.717Z,74230.95
2023-04-26T09:20:30.087Z,74236.71
2023-04-26T09:23:19.488Z,74244.13
2023-04-26T09:25:56.847Z,74272.49
2023-04-26T09:28:25.979Z,74291.02
2023-04-26T09:30:52.955Z,74299.64
2023-04-26T09:33:22.666Z,74318.98
2023-04-26T09:35:51.167Z,74329.27
2023-04-26T09:38:19.670Z,74333.38
2023-04-26T09:40:52.769Z,74345.30
2023-04-26T09:43:21.941Z,74358.88
2023-04-26T09:45:53.354Z,74376.98
2023-04-26T09:48:30.748Z,74388.91
2023-04-26T09:51:05.499Z,74415.65
2023-04-26T09:53:47.330Z,74434.57
2023-04-26T09:56:17.028Z,74452.26
2023-04-26T09:58:46.648Z,74468.30
2023-04-26T10:01:18.250Z,74487.23
2023-04-26T10:03:46.259Z,74513.96
2023-04-26T10:06:15.572Z,74521.77
2023-04-26T10:08:43.732Z,74534.12
2023-04-26T10:11:12.518Z,74529.59
2023-04-26T10:13:42.271Z,74525.89
2023-04-26T10:16:11.412Z,74526.30
2023-04-26T10:18:38.468Z,74507.80
2023-04-26T10:21:18.284Z,74497.52
2023-04-26T10:23:45.379Z,74486.81
2023-04-26T10:26:51.133Z,74473.65
2023-04-26T10:29:22.236Z,74461.72
2023-04-26T10:32:03.445Z,74447.32
2023-04-26T10:34:32.109Z,74444.02
2023-04-26T10:37:08.693Z,74424.70
2023-04-26T10:39:38.848Z,74414.42
2023-04-26T10:42:24.749Z,74412.77
2023-04-26T10:44:58.257Z,74420.17
2023-04-26T10:47:38.992Z,74424.29
2023-04-26T10:50:12.099Z,74441.56
2023-04-26T10:53:03.885Z,74437.04
2023-04-26T10:55:37.662Z,74430.05
2023-04-26T10:58:29.076Z,74425.52
2023-04-26T11:01:06.622Z,74397.96
2023-04-26T11:03:34.676Z,74393.02
2023-04-26T11:06:07.671Z,74390.14
2023-04-26T11:08:38.709Z,74398.37
2023-04-26T11:11:08.616Z,74416.05
2023-04-26T11:13:40.932Z,74432.52
2023-04-26T11:16:12.252Z,74445.67
2023-04-26T11:18:49.019Z,74455.95
2023-04-26T11:21:19.035Z,74462.13
2023-04-26T11:23:55.493Z,74460.48
2023-04-26T11:26:22.509Z,74464.18
2023-04-26T11:28:50.978Z,74448.15
2023-04-26T11:31:18.215Z,74425.11
2023-04-26T11:33:48.473Z,74390.14
2023-04-26T11:36:19.359Z,74377.80
2023-04-26T11:38:53.790Z,74373.69
2023-04-26T11:41:20.796Z,74383.15
2023-04-26T11:43:49.025Z,74401.66
2023-04-26T11:46:16.268Z,74404.54
2023-04-26T11:48:44.634Z,74419.35
2023-04-26T11:51:14.224Z,74425.93
2023-04-26T11:53:43.150Z,74431.27
2023-04-26T11:56:16.977Z,74433.34
2023-04-26T11:59:03.412Z,74430.87
2023-04-26T12:01:41.712Z,74432.52
2023-04-26T12:04:10.358Z,74430.45
2023-04-26T12:06:47.505Z,74417.70
2023-04-26T12:09:14.667Z,74406.19
2023-04-26T12:11:41.704Z,74391.38
2023-04-26T12:14:10.988Z,74383.56
2023-04-26T12:16:40.399Z,74379.45
2023-04-26T12:19:12.735Z,74372.05
2023-04-26T12:21:42.952Z,74370.40
2023-04-26T12:24:38.107Z,74366.29
2023-04-26T12:27:06.357Z,74369.98
2023-04-26T12:29:33.873Z,74374.10
2023-04-26T12:32:04.287Z,74378.63
2023-04-26T12:34:31.606Z,74377.80
2023-04-26T12:37:00.505Z,74376.56
2023-04-26T12:39:27.679Z,74382.33
2023-04-26T12:41:57.778Z,74388.49
2023-04-26T12:44:25.788Z,74399.60
2023-04-26T12:46:52.987Z,74407.83
2023-04-26T12:49:21.576Z,74416.06
2023-04-26T12:51:48.802Z,74416.47
2023-04-26T12:54:17.784Z,74420.99
2023-04-26T12:56:46.001Z,74424.29
2023-04-26T12:59:13.209Z,74427.98
2023-04-26T13:01:45.683Z,74434.98
2023-04-26T13:04:20.801Z,74441.98
2023-04-26T13:06:50.435Z,74448.15
2023-04-26T13:09:19.170Z,74455.95
2023-04-26T13:11:47.648Z,74465.42
2023-04-26T13:14:16.226Z,74479.41
2023-04-26T13:16:45.963Z,74490.11
2023-04-26T13:19:16.644Z,74509.85
2023-04-26T13:21:43.781Z,74527.13
2023-04-26T13:24:10.775Z,74537.00
2023-04-26T13:26:37.703Z,74549.75
2023-04-26T13:29:04.700Z,74562.51
2023-04-26T13:31:32.661Z,74569.91
2023-04-26T13:33:59.686Z,74576.49
2023-04-26T13:36:27.526Z,74582.25
2023-04-26T13:38:54.537Z,74592.95
2023-04-26T13:41:22.038Z,74597.47
2023-04-26T13:43:49.817Z,74606.52
2023-04-26T13:46:18.184Z,74620.92
2023-04-26T13:48:45.516Z,74625.04
2023-04-26T13:51:12.781Z,74631.20
2023-04-26T13:53:41.388Z,74639.84
2023-04-26T13:56:10.578Z,74653.42
2023-04-26T13:58:37.671Z,74670.29
2023-04-26T14:01:04.660Z,74685.50
2023-04-26T14:03:34.949Z,74700.31
2023-04-26T14:06:03.079Z,74711.83
2023-04-26T14:08:32.875Z,74720.06
2023-04-26T14:11:01.602Z,74722.12
2023-04-26T14:13:33.464Z,74720.88
2023-04-26T14:16:00.808Z,74727.05
2023-04-26T14:18:28.657Z,74727.05
2023-04-26T14:20:55.677Z,74729.11
2023-04-26T14:23:23.154Z,74729.94
2023-04-26T14:25:53.571Z,74729.52
2023-04-26T14:28:21.189Z,74729.52
2023-04-26T14:30:48.171Z,74727.88
2023-04-26T14:33:16.955Z,74734.45
2023-04-26T14:35:45.020Z,74732.81
2023-04-26T14:38:12.119Z,74741.04
2023-04-26T14:40:39.110Z,74749.27
2023-04-26T14:43:07.414Z,74750.50
2023-04-26T14:45:44.218Z,74763.26
2023-04-26T14:48:11.975Z,74777.24
2023-04-26T14:50:38.940Z,74787.94
2023-04-26T14:53:06.263Z,74814.27
2023-04-26T14:55:34.330Z,74820.85
2023-04-26T14:58:03.088Z,74836.48
2023-04-26T15:00:30.263Z,74855.00
2023-04-26T15:02:59.833Z,74860.34
2023-04-26T15:05:27.938Z,74868.57
2023-04-26T15:07:56.400Z,74876.39
2023-04-26T15:10:27.091Z,74882.98
2023-04-26T15:12:55.943Z,74885.02
2023-04-26T15:15:28.400Z,74885.44
2023-04-26T15:17:58.174Z,74886.27
2023-04-26T15:20:25.268Z,74889.15
2023-04-26T15:22:52.634Z,74886.67
2023-04-26T15:25:20.613Z,74885.44
2023-04-26T15:27:49.809Z,74886.27
2023-04-26T15:30:18.556Z,74881.73
2023-04-26T15:32:51.401Z,74882.15
2023-04-26T15:35:18.711Z,74871.45
2023-04-26T15:37:48.608Z,74865.69
2023-04-26T15:40:16.190Z,74860.35
2023-04-26T15:42:45.767Z,74851.70
2023-04-26T15:45:13.088Z,74846.77
2023-04-26T15:47:41.590Z,74842.23
2023-04-26T15:50:10.127Z,74834.42
2023-04-26T15:52:39.401Z,74829.08
2023-04-26T15:55:15.217Z,74827.02
2023-04-26T15:57:45.502Z,74823.73
2023-04-26T16:00:15.745Z,74822.91
2023-04-26T16:02:45.889Z,74820.85
2023-04-26T16:05:13.552Z,74817.56
2023-04-26T16:07:41.956Z,74814.27
2023-04-26T16:10:10.158Z,74816.73
2023-04-26T16:12:43.233Z,74815.91
2023-04-26T16:15:11.741Z,74821.67
2023-04-26T16:18:06.986Z,74824.14
2023-04-26T16:20:34.708Z,74831.96
2023-04-26T16:23:02.101Z,74833.60
2023-04-26T16:25:31.353Z,74843.89
2023-04-26T16:27:59.816Z,74851.30
2023-04-26T16:30:28.774Z,74850.05
2023-04-26T16:32:58.175Z,74852.53
2023-04-26T16:35:27.517Z,74852.53
2023-04-26T16:37:54.714Z,74854.17
2023-04-26T16:40:23.632Z,74854.59
2023-04-26T16:42:52.101Z,74852.12
2023-04-26T16:45:21.233Z,74852.12
2023-04-26T16:47:49.807Z,74854.59
2023-04-26T16:50:19.242Z,74854.17
2023-04-26T16:52:46.597Z,74857.88
2023-04-26T16:55:15.516Z,74856.64
2023-04-26T16:58:11.515Z,74855.81
2023-04-26T17:00:40.740Z,74859.94
2023-04-26T17:03:11.732Z,74859.94
2023-04-26T17:05:43.492Z,74859.94
2023-04-26T17:08:10.848Z,74862.81
2023-04-26T17:10:39.960Z,74857.88
2023-04-26T17:13:08.371Z,74858.70
2023-04-26T17:15:36.886Z,74856.23
2023-04-26T17:18:04.790Z,74853.77
2023-04-26T17:20:32.751Z,74862.81
2023-04-26T17:23:02.708Z,74873.92
2023-04-26T17:25:33.433Z,74885.85
2023-04-26T17:28:00.791Z,74886.27
2023-04-26T17:30:30.165Z,74895.31
2023-04-26T17:33:01.049Z,74902.30
2023-04-26T17:35:28.111Z,74907.66
2023-04-26T17:37:57.732Z,74916.70
2023-04-26T17:40:26.562Z,74915.48
2023-04-26T17:42:56.598Z,74919.59
2023-04-26T17:45:24.273Z,74922.88
2023-04-26T17:47:51.971Z,74926.17
2023-04-26T17:50:20.770Z,74928.23
2023-04-26T17:52:50.509Z,74931.52
2023-04-26T17:55:18.507Z,74937.27
2023-04-26T17:57:46.257Z,74943.45
2023-04-26T18:00:14.479Z,74942.21
2023-04-26T18:02:46.625Z,74942.63
2023-04-26T18:05:16.136Z,74941.39
2023-04-26T18:07:43.254Z,74941.40
2023-04-26T18:10:10.521Z,74941.81
2023-04-26T18:12:45.085Z,74946.73
2023-04-26T18:15:13.374Z,74957.85
2023-04-26T18:17:45.195Z,74966.08
2023-04-26T18:20:16.500Z,74972.66
2023-04-26T18:22:46.167Z,74976.36
2023-04-26T18:25:17.392Z,74980.06
2023-04-26T18:27:46.345Z,74987.06
2023-04-26T18:30:17.881Z,74992.41
2023-04-26T18:32:46.123Z,74988.30
2023-04-26T18:35:16.267Z,74987.89
2023-04-26T18:37:47.312Z,74985.42
2023-04-26T18:40:16.516Z,74987.06
2023-04-26T18:42:44.646Z,74984.18
2023-04-26T18:45:12.338Z,74981.71
2023-04-26T18:47:40.014Z,74980.48
2023-04-26T18:50:07.733Z,74981.71
2023-04-26T18:52:35.973Z,74980.48
2023-04-26T18:55:08.194Z,74979.65
2023-04-26T18:57:36.624Z,74978.00
2023-04-26T19:00:07.453Z,74977.19
2023-04-26T19:02:39.542Z,74977.59
2023-04-26T19:05:10.150Z,74977.19
2023-04-26T19:07:42.904Z,74975.95
2023-04-26T19:10:13.731Z,74976.36
2023-04-26T19:12:41.375Z,74973.08
2023-04-26T19:15:17.083Z,74968.95
2023-04-26T19:17:45.058Z,74962.79
2023-04-26T19:20:15.582Z,74957.85
2023-04-26T19:22:56.056Z,74949.62
2023-04-26T19:25:27.472Z,74950.45
2023-04-26T19:27:58.919Z,74947.15
2023-04-26T19:30:27.326Z,74947.57
2023-04-26T19:32:57.687Z,74945.92
2023-04-26T19:35:28.158Z,74949.21
2023-04-26T19:37:56.805Z,74937.69
2023-04-26T19:40:28.459Z,74945.92
2023-04-26T19:42:55.644Z,74949.62
2023-04-26T19:45:23.332Z,74956.61
2023-04-26T19:47:51.991Z,74966.08
2023-04-26T19:50:21.974Z,74969.36
2023-04-26T19:52:52.298Z,74977.19
2023-04-26T19:55:19.978Z,74977.19
2023-04-26T19:57:47.691Z,74976.36
2023-04-26T20:00:18.587Z,74974.72
2023-04-26T20:02:49.407Z,74974.72
2023-04-26T20:05:19.164Z,74974.71
2023-04-26T20:07:47.922Z,74974.30
2023-04-26T20:10:15.512Z,74972.25
2023-04-26T20:12:47.245Z,74973.48
2023-04-26T20:15:16.243Z,74973.89
2023-04-26T20:17:47.366Z,74968.95
2023-04-26T20:20:15.821Z,74966.90
2023-04-26T20:22:42.894Z,74961.55
2023-04-26T20:25:13.085Z,74962.38
2023-04-26T20:27:42.130Z,74961.96
2023-04-26T20:30:10.529Z,74961.55
2023-04-26T20:32:39.157Z,74960.73
2023-04-26T20:35:08.402Z,74955.79
2023-04-26T20:37:35.591Z,74958.67
2023-04-26T20:40:07.471Z,74962.79
2023-04-26T20:42:34.947Z,74961.14
2023-04-26T20:45:10.063Z,74960.73
2023-04-26T20:47:42.280Z,74957.85
2023-04-26T20:50:09.596Z,74951.67
2023-04-26T20:52:36.751Z,74954.15
2023-04-26T20:55:07.615Z,74955.39
2023-04-26T20:57:37.929Z,74952.91
2023-04-26T21:00:07.318Z,74949.62
2023-04-26T21:02:37.576Z,74946.33
2023-04-26T21:05:05.621Z,74951.27
2023-04-26T21:07:33.154Z,74944.69
2023-04-26T21:10:03.806Z,74939.75
2023-04-26T21:12:31.982Z,74941.40
2023-04-26T21:15:00.950Z,74941.39
2023-04-26T21:17:28.203Z,74947.98
2023-04-26T21:19:56.336Z,74948.39
2023-04-26T21:22:23.747Z,74945.92
2023-04-26T21:24:51.614Z,74947.15
2023-04-26T21:27:18.817Z,74945.51
2023-04-26T21:29:45.877Z,74945.91
2023-04-26T21:32:14.028Z,74948.80
2023-04-26T21:34:42.895Z,74951.27
2023-04-26T21:37:10.258Z,74955.80
2023-04-26T21:39:39.234Z,74961.55
2023-04-26T21:42:06.861Z,74960.73
2023-04-26T21:44:34.028Z,74964.02
2023-04-26T21:47:01.221Z,74966.90
2023-04-26T21:49:29.083Z,74971.42
2023-04-26T21:51:56.247Z,74971.43
2023-04-26T21:54:23.351Z,74977.60
2023-04-26T21:56:50.686Z,74980.89
2023-04-26T21:59:18.865Z,74985.42
2023-04-26T22:01:45.936Z,74987.48
2023-04-26T22:04:14.803Z,74995.30
2023-04-26T22:06:43.346Z,74994.88
2023-04-26T22:09:10.907Z,74997.35
2023-04-26T22:11:39.654Z,74995.70
2023-04-26T22:14:06.820Z,74998.17
2023-04-26T22:16:34.756Z,74998.17
2023-04-26T22:19:01.848Z,75001.87
2023-04-26T22:21:29.562Z,75001.86
2023-04-26T22:23:56.873Z,74998.99
2023-04-26T22:26:27.675Z,74997.77
2023-04-26T22:28:57.736Z,74998.17
2023-04-26T22:31:27.594Z,74999.81
2023-04-26T22:34:01.254Z,75000.23
2023-04-26T22:36:28.548Z,75002.27
2023-04-26T22:38:55.615Z,75002.69
2023-04-26T22:41:23.021Z,75005.16
2023-04-26T22:43:51.601Z,75008.86
2023-04-26T22:46:20.907Z,75017.91
2023-04-26T22:48:48.157Z,75021.61
2023-04-26T22:51:15.734Z,75027.79
2023-04-26T22:53:44.403Z,75031.08
2023-04-26T22:56:12.073Z,75034.78
2023-04-26T22:58:39.036Z,75041.77
2023-04-26T23:01:06.149Z,75054.13
2023-04-26T23:03:36.899Z,75066.05
2023-04-26T23:06:06.551Z,75081.68
2023-04-26T23:08:34.099Z,75090.73
2023-04-26T23:11:07.183Z,75097.31
2023-04-26T23:13:36.047Z,75115.42
2023-04-26T23:16:04.045Z,75133.11
2023-04-26T23:18:31.633Z,75152.45
2023-04-26T23:20:58.831Z,75170.96
2023-04-26T23:23:26.417Z,75182.90
2023-04-26T23:25:53.366Z,75195.65
2023-04-26T23:28:20.325Z,75201.83
2023-04-26T23:30:48.709Z,75206.76
2023-04-26T23:33:17.840Z,75215.40
2023-04-26T23:35:45.963Z,75219.10
2023-04-26T23:38:12.969Z,75222.39
2023-04-26T23:40:40.242Z,75226.09
2023-04-26T23:43:08.741Z,75233.91
2023-04-26T23:45:35.838Z,75248.33
2023-04-26T23:48:03.011Z,75261.48
2023-04-26T23:50:31.056Z,75269.71
2023-04-26T23:52:58.236Z,75292.75
2023-04-26T23:55:28.291Z,75308.80
2023-04-26T23:57:55.505Z,75316.62
